Airfield :
LOGIN :

Register | Disclaimer

   EN    FR    IT 

 










Legend :    VFR   Marginal VFR   IFR   Intensive IFR   Very Intensive IFR
Visi :
Ceiling :
>= 8 km
>= 3000ft
5 to 8 km
1000 to 3000 ft
1500m to 5 km
500 to 1000 ft
800 to 1500m
200 to 500 ft
< 800m
< 200 ft
Symbols :   Thunderstorms  Fog  Heavy snow  Heavy precipitations  Wind > 20 kt
SIGMETs :     Misc.  Thunderstorms  Icing  Turbulence  Mountain Waves  Volcanic Ashes






- Airport Elevation : 25 ft
- IATA code : QCY


EGXC - RAF Coningsby

CURRENT METAR :
  • 220550Z 29003KT 0500 FG OVC001 03/03 Q1037 RMK RED

EXPIRED METARs :
  • 220450Z 30003KT 0600 FG BKN001 04/04 Q1037 RMK RED
  • 220350Z 31005KT 2000 BR SCT006 BKN022 04/04 Q1037 RMK YLO2
  • 220332Z 30005KT 1400 BR BKN006 04/04 Q1037 RMK AMB

TAF TAF EGXC
Valid from the 22 at 06:00 until the 23 at 00:00 UTC


220415Z 2206/2224 30005KT 3000 BR FEW008 BKN020
TEMPO 2206/2210 1200 BR BKN004
PROB40
TEMPO 2206/2210 0200 FG VV///
BECMG 2210/2213 6000 HZ
PROB30
TEMPO 2210/2224 BKN006
BECMG 2217/2219 3000 BR
PROB40 2219/2224 0200 FG VV///



MET'MAP, your aeronautical weather chart ! - Copyright ORBIFLY December 2007 - Disclaimer

ORBIFLY MET'MAP TEAM :

Programming & Development : Alexandra Zaïnal
Concept & original design : Baudouin d'Aumeries
Assistance for programming : Marc-Olivier Méhu
Technical & hardware support : Manuel Goepfert

Contact : metmap@orbifly.com




SOURCES & CREDITS :

   NOAA